.
WxDataArchive / Data Records for 2011-06-17
2011-06-16 June 2011 2011-06-18

Data Records for Friday, 17 June 2011

Time	Temp	Chill	HIndex	Humid	Dewpt	 Wind 	HiWind	WindDir	Rain 	Barom 
-----	----	-----	------	-----	-----	------	------	-------	-----	----- 
00:00	61.8	61.8	61.8	92	59.4	0	0	---	0.00	29.807 
00:05	61.8	61.8	61.8	92	59.4	0	0	---	0.00	29.807 
00:10	61.8	61.8	61.8	92	59.4	0	0	---	0.00	29.807 
00:15	61.6	61.6	61.6	92	59.2	0	0	---	0.00	29.809 
00:20	61.6	61.6	61.6	92	59.2	0	0	---	0.00	29.809 
00:25	61.5	61.5	61.5	92	59.2	0	0	---	0.00	29.809 
00:30	61.3	61.3	61.3	92	59.0	0	0	---	0.00	29.811 
00:35	61.3	61.3	61.3	92	59.0	0	0	---	0.00	29.811 
00:40	61.2	61.2	61.2	92	58.9	0	0	---	0.00	29.811 
00:45	61.2	61.2	61.2	93	59.2	0	0	---	0.00	29.811 
00:50	61.0	61.0	61.0	93	59.0	0	0	---	0.00	29.811 
00:55	60.9	60.9	60.9	93	58.9	0	0	---	0.00	29.811 
01:00	60.9	60.9	60.9	93	58.9	0	0	---	0.00	29.814 
01:05	60.7	60.7	60.7	93	58.7	0	0	---	0.00	29.814 
01:10	60.7	60.7	60.7	93	58.7	0	0	---	0.00	29.814 
01:15	60.5	60.5	60.5	93	58.5	0	0	---	0.00	29.816 
01:20	60.5	60.5	60.5	93	58.5	0	0	---	0.00	29.816 
01:25	60.4	60.4	60.4	93	58.4	0	0	---	0.00	29.816 
01:30	60.4	60.4	60.4	93	58.4	0	0	---	0.00	29.827 
01:35	60.2	60.2	60.2	93	58.2	0	0	---	0.00	29.827 
01:40	60.1	60.1	60.1	93	58.1	0	0	---	0.00	29.827 
01:45	60.1	60.1	60.1	93	58.1	0	0	---	0.00	29.839 
01:50	60.2	60.2	60.2	94	58.5	0	0	---	0.00	29.839 
01:55	60.5	60.5	60.5	94	58.8	0	0	---	0.00	29.839 
02:00	60.7	60.7	60.7	94	59.0	0	0	---	0.00	29.840 
02:05	61.0	61.0	61.0	94	59.3	0	0	---	0.00	29.840 
02:10	61.0	61.0	61.0	94	59.3	0	0	---	0.00	29.840 
02:15	61.0	61.0	61.0	94	59.3	0	0	---	0.00	29.835 
02:20	61.2	61.2	61.2	94	59.5	0	0	---	0.00	29.835 
02:25	61.2	61.2	61.2	94	59.5	0	0	---	0.00	29.835 
02:30	61.2	61.2	61.2	94	59.5	0	0	---	0.00	29.839 
02:35	61.2	61.2	61.2	94	59.5	0	0	---	0.00	29.839 
02:40	61.2	61.2	61.2	95	59.8	0	0	---	0.00	29.839 
02:45	61.3	61.3	61.3	95	59.9	0	0	---	0.00	29.838 
02:50	61.3	61.3	61.3	95	59.9	0	0	---	0.00	29.838 
02:55	61.5	61.5	61.5	95	60.1	0	0	---	0.00	29.838 
03:00	61.5	61.5	61.5	95	60.1	0	0	---	0.00	29.837 
03:05	61.5	61.5	61.5	95	60.1	0	0	---	0.00	29.837 
03:10	61.5	61.5	61.5	95	60.1	0	0	---	0.00	29.837 
03:15	61.5	61.5	61.5	95	60.1	0	0	---	0.00	29.840 
03:20	61.3	61.3	61.3	95	59.9	0	0	---	0.00	29.840 
03:25	61.2	61.2	61.2	95	59.8	0	0	---	0.00	29.840 
03:30	61.0	61.0	61.0	95	59.6	0	0	---	0.00	29.839 
03:35	61.0	61.0	61.0	95	59.6	0	0	---	0.00	29.839 
03:40	60.9	60.9	60.9	95	59.5	0	0	---	0.00	29.839 
03:45	60.7	60.7	60.7	95	59.3	0	0	---	0.00	29.845 
03:50	60.5	60.5	60.5	95	59.1	0	0	---	0.00	29.845 
03:55	60.4	60.4	60.4	95	59.0	0	0	---	0.00	29.845 
04:00	60.2	60.2	60.2	95	58.8	0	0	---	0.00	29.849 
04:05	60.2	60.2	60.2	95	58.8	0	0	---	0.00	29.849 
04:10	60.1	60.1	60.1	95	58.7	0	0	---	0.00	29.849 
04:15	60.1	60.1	60.1	95	58.7	0	0	---	0.00	29.850 
04:20	59.9	59.9	59.9	95	58.5	0	0	---	0.00	29.850 
04:25	59.9	59.9	59.9	95	58.5	0	0	---	0.00	29.850 
04:30	59.9	59.9	59.9	95	58.5	0	0	---	0.00	29.851 
04:35	59.9	59.9	59.9	95	58.5	0	0	---	0.00	29.851 
04:40	59.9	59.9	59.9	95	58.5	0	0	---	0.00	29.851 
04:45	59.9	59.9	59.9	95	58.5	0	0	---	0.00	29.851 
04:50	59.9	59.9	59.9	95	58.5	0	0	---	0.00	29.851 
04:55	59.9	59.9	59.9	95	58.5	0	0	---	0.00	29.851 
05:00	59.8	59.8	59.8	95	58.4	0	0	---	0.00	29.854 
05:05	59.8	59.8	59.8	95	58.4	0	0	---	0.00	29.854 
05:10	59.6	59.6	59.6	95	58.2	0	0	---	0.00	29.854 
05:15	59.6	59.6	59.6	95	58.2	0	0	---	0.00	29.855 
05:20	59.5	59.5	59.5	95	58.1	0	0	---	0.00	29.855 
05:25	59.3	59.3	59.3	95	57.9	0	0	---	0.00	29.855 
05:30	59.3	59.3	59.3	95	57.9	0	0	---	0.00	29.855 
05:35	59.3	59.3	59.3	95	57.9	0	0	---	0.00	29.855 
05:40	59.2	59.2	59.2	95	57.8	0	0	---	0.00	29.855 
05:45	59.2	59.2	59.2	95	57.8	0	0	---	0.00	29.856 
05:50	59.0	59.0	59.0	95	57.6	0	0	---	0.00	29.856 
05:55	58.9	58.9	58.9	95	57.5	0	0	---	0.00	29.856 
06:00	58.7	58.7	58.7	95	57.3	0	0	---	0.00	29.858 
06:05	58.7	58.7	58.7	95	57.3	0	0	---	0.00	29.858 
06:10	58.7	58.7	58.7	95	57.3	0	0	---	0.00	29.858 
06:15	58.7	58.7	58.7	95	57.3	0	0	---	0.00	29.861 
06:20	58.6	58.6	58.6	95	57.2	0	2	68	0.00	29.861 
06:25	58.4	58.4	58.4	95	57.0	0	0	---	0.00	29.861 
06:30	58.4	58.4	58.4	95	57.0	0	0	---	0.00	29.853 
06:35	58.6	58.6	58.6	96	57.5	0	0	---	0.00	29.853 
06:40	58.9	58.9	58.9	96	57.8	0	0	---	0.00	29.853 
06:45	59.0	59.0	59.0	96	57.9	0	0	---	0.00	29.852 
06:50	59.3	59.3	59.3	96	58.2	0	0	---	0.00	29.852 
06:55	59.5	59.5	59.5	96	58.4	0	0	---	0.00	29.852 
07:00	59.6	59.6	59.6	96	58.5	0	0	---	0.00	29.850 
07:05	59.9	59.9	59.9	96	58.8	0	0	---	0.00	29.850 
07:10	60.2	60.2	60.2	96	59.1	0	0	---	0.00	29.850 
07:15	60.4	60.4	60.4	96	59.3	0	0	---	0.00	29.852 
07:20	60.5	60.5	60.5	96	59.4	0	0	---	0.00	29.852 
07:25	61.0	61.0	61.0	96	59.8	0	0	---	0.00	29.852 
07:30	61.8	61.8	61.8	97	60.9	0	0	---	0.00	29.853 
07:35	62.9	62.9	62.9	97	62.0	0	0	---	0.00	29.853 
07:40	63.7	63.7	63.7	96	62.5	0	1	68	0.00	29.853 
07:45	64.2	64.2	64.2	96	63.0	0	2	68	0.00	29.851 
07:50	64.5	64.5	64.5	95	63.0	0	1	68	0.00	29.851 
07:55	64.8	64.8	64.8	94	63.0	0	0	---	0.00	29.851 
08:00	65.2	65.2	65.2	94	63.4	0	0	---	0.00	29.848 
08:05	65.6	65.6	65.6	93	63.5	0	0	---	0.00	29.848 
08:10	65.6	65.6	65.6	93	63.5	0	2	68	0.00	29.848 
08:15	65.6	65.6	65.6	92	63.2	0	1	68	0.00	29.865 
08:20	65.6	65.6	65.6	92	63.2	0	0	---	0.00	29.865 
08:25	65.8	65.8	65.8	91	63.1	0	1	68	0.00	29.865 
08:30	66.3	66.3	66.3	91	63.6	0	0	---	0.00	29.867 
08:35	66.4	66.4	66.4	90	63.4	0	0	---	0.00	29.867 
08:40	66.6	66.6	66.6	89	63.3	0	0	---	0.00	29.867 
08:45	66.8	66.8	66.8	88	63.1	0	1	68	0.00	29.863 
08:50	67.3	67.3	67.3	87	63.3	0	1	68	0.00	29.863 
08:55	68.3	68.3	68.3	85	63.6	0	1	68	0.00	29.863 
09:00	68.9	68.9	68.9	84	63.9	0	1	68	0.00	29.862 
09:05	69.4	69.4	69.4	81	63.3	0	1	68	0.00	29.862 
09:10	70.1	70.1	70.1	80	63.6	0	2	68	0.00	29.862 
09:15	70.9	70.9	70.9	78	63.7	0	1	68	0.00	29.865 
09:20	72.0	72.0	72.0	77	64.4	0	2	68	0.00	29.865 
09:25	72.8	72.8	72.8	75	64.4	0	1	68	0.00	29.865 
09:30	73.7	73.7	73.7	74	64.9	0	0	---	0.00	29.860 
09:35	74.2	74.2	74.2	72	64.6	0	2	315	0.00	29.860 
09:40	74.0	74.0	74.0	73	64.8	0	1	315	0.00	29.860 
09:45	73.9	73.9	73.9	73	64.7	0	1	315	0.00	29.858 
09:50	74.2	74.2	74.2	71	64.2	0	1	315	0.00	29.858 
09:55	75.1	75.1	76.6	72	65.4	0	2	315	0.00	29.858 
10:00	75.6	75.6	77.2	70	65.1	1	3	338	0.00	29.856 
10:05	76.0	76.0	77.7	69	65.1	0	2	338	0.00	29.856 
10:10	76.3	76.3	78.0	68	64.9	1	4	90	0.00	29.856 
10:15	76.7	76.7	78.5	66	64.5	1	4	90	0.00	29.852 
10:20	77.0	77.0	78.8	68	65.6	1	4	90	0.00	29.852 
10:25	77.4	77.4	79.2	66	65.1	0	2	90	0.00	29.852 
10:30	77.4	77.4	79.2	65	64.7	1	4	90	0.00	29.849 
10:35	77.7	77.7	79.5	65	65.0	1	2	112	0.00	29.849 
10:40	78.3	78.3	80.1	62	64.2	1	3	112	0.00	29.849 
10:45	79.0	79.0	80.8	61	64.4	0	3	112	0.00	29.842 
10:50	79.6	79.6	81.5	62	65.4	0	1	112	0.00	29.842 
10:55	79.8	79.8	81.7	61	65.1	1	3	112	0.00	29.842 
11:00	79.8	79.8	81.4	58	63.7	1	2	112	0.00	29.842 
11:05	79.4	79.4	80.6	54	61.3	1	3	112	0.00	29.842 
11:10	79.6	79.6	80.9	55	62.0	1	3	112	0.00	29.842 
11:15	80.1	80.1	81.6	57	63.5	0	2	112	0.00	29.840 
11:20	80.7	80.7	81.3	49	59.7	0	3	112	0.00	29.840 
11:25	81.2	81.2	81.8	49	60.2	1	4	112	0.00	29.840 
11:30	81.8	81.8	83.0	53	63.0	0	2	112	0.00	29.837 
11:35	81.6	81.6	82.2	49	60.6	1	4	112	0.00	29.837 
11:40	81.6	81.6	81.9	47	59.4	0	4	90	0.00	29.837 
11:45	82.0	82.0	82.5	48	60.3	1	2	90	0.00	29.839 
11:50	82.0	82.0	82.1	45	58.5	1	3	90	0.00	29.839 
11:55	82.2	82.2	82.5	47	59.9	1	3	90	0.00	29.839 
12:00	82.2	82.2	82.3	45	58.7	1	3	90	0.00	29.836 
12:05	82.6	82.6	82.5	44	58.4	0	2	90	0.00	29.836 
12:10	83.4	83.4	83.8	47	61.0	0	1	90	0.00	29.836 
12:15	83.6	83.6	83.2	42	58.0	0	1	90	0.00	29.831 
12:20	83.4	83.4	83.7	46	60.4	1	4	90	0.00	29.831 
12:25	83.2	83.2	83.3	45	59.6	1	4	90	0.00	29.831 
12:30	83.4	83.4	83.3	44	59.2	0	2	90	0.00	29.838 
12:35	83.8	83.8	84.5	48	62.0	0	2	135	0.00	29.838 
12:40	84.1	84.1	85.0	49	62.8	1	2	135	0.00	29.838 
12:45	84.1	84.1	84.1	44	59.8	1	4	90	0.00	29.842 
12:50	84.0	84.0	83.8	43	59.1	0	3	90	0.00	29.842 
12:55	84.1	84.1	83.9	43	59.2	0	3	90	0.00	29.842 
13:00	84.1	84.1	84.1	44	59.8	1	3	90	0.00	29.842 
13:05	84.3	84.3	84.5	45	60.6	0	2	90	0.00	29.842 
13:10	84.5	84.5	84.0	41	58.2	0	2	90	0.00	29.842 
13:15	84.7	84.7	84.6	43	59.7	0	1	315	0.00	29.850 
13:20	84.7	84.7	85.0	45	61.0	0	2	0	0.00	29.850 
13:25	84.9	84.9	85.4	46	61.8	0	3	22	0.00	29.850 
13:30	84.9	84.9	84.8	43	59.9	1	3	22	0.00	29.854 
13:35	84.9	84.9	84.6	42	59.2	0	2	0	0.00	29.854 
13:40	84.5	84.5	84.1	42	58.9	1	4	270	0.00	29.854 
13:45	84.3	84.3	84.7	46	61.2	1	3	338	0.00	29.850 
13:50	84.5	84.5	84.5	44	60.2	0	2	338	0.00	29.850 
13:55	84.7	84.7	85.8	49	63.4	1	3	338	0.00	29.850 
14:00	85.1	85.1	85.4	45	61.3	0	3	0	0.00	29.847 
14:05	85.5	85.5	86.6	48	63.5	1	2	0	0.00	29.847 
14:10	85.9	85.9	86.2	44	61.4	0	2	292	0.00	29.847 
14:15	85.7	85.7	85.3	41	59.3	0	2	292	0.00	29.839 
14:20	85.5	85.5	85.5	43	60.4	0	0	---	0.00	29.839 
14:25	85.5	85.5	85.9	45	61.7	0	2	292	0.00	29.839 
14:30	85.5	85.5	86.2	46	62.3	0	1	292	0.00	29.839 
14:35	85.7	85.7	87.4	50	64.9	1	3	270	0.00	29.839 
14:40	85.7	85.7	85.5	42	59.9	1	4	45	0.00	29.839 
14:45	85.7	85.7	85.7	43	60.6	0	2	45	0.00	29.833 
14:50	85.7	85.7	86.4	46	62.5	0	3	45	0.00	29.833 
14:55	85.7	85.7	86.4	46	62.5	0	3	270	0.00	29.833 
15:00	85.9	85.9	86.7	46	62.7	1	3	270	0.00	29.826 
15:05	85.9	85.9	86.2	44	61.4	1	3	270	0.00	29.826 
15:10	86.1	86.1	86.2	43	61.0	0	2	270	0.00	29.826 
15:15	85.3	85.3	85.9	46	62.1	0	1	270	0.00	29.822 
15:20	84.7	84.7	85.0	45	61.0	0	2	270	0.00	29.822 
15:25	84.1	84.1	84.8	48	62.3	0	1	270	0.00	29.822 
15:30	84.1	84.1	84.3	45	60.4	0	2	270	0.00	29.827 
15:35	84.0	84.0	84.3	46	61.0	0	3	112	0.00	29.827 
15:40	84.1	84.1	84.4	46	61.1	0	2	112	0.00	29.827 
15:45	84.9	84.9	85.4	46	61.8	0	1	112	0.00	29.825 
15:50	85.7	85.7	86.4	46	62.5	0	2	112	0.00	29.825 
15:55	85.7	85.7	86.2	45	61.9	1	4	112	0.00	29.825 
16:00	85.1	85.1	85.7	46	62.0	0	2	112	0.00	29.818 
16:05	84.9	84.9	85.6	47	62.4	0	1	112	0.00	29.818 
16:10	84.9	84.9	85.6	47	62.4	0	1	112	0.00	29.818 
16:15	84.9	84.9	85.6	47	62.4	0	1	112	0.00	29.824 
16:20	84.9	84.9	85.4	46	61.8	0	1	112	0.00	29.824 
16:25	85.1	85.1	85.4	45	61.3	0	1	112	0.00	29.824 
16:30	85.1	85.1	85.4	45	61.3	0	1	112	0.00	29.824 
16:35	85.1	85.1	85.7	46	62.0	0	2	135	0.00	29.824 
16:40	84.7	84.7	85.2	46	61.6	0	2	135	0.00	29.824 
16:45	84.1	84.1	84.4	46	61.1	1	2	270	0.00	29.825 
16:50	84.1	84.1	84.4	46	61.1	0	2	270	0.00	29.825 
16:55	84.3	84.3	84.9	47	61.8	0	1	270	0.00	29.825 
17:00	84.7	84.7	85.4	47	62.2	0	0	---	0.00	29.825 
17:05	84.9	84.9	85.4	46	61.8	0	1	270	0.00	29.825 
17:10	85.1	85.1	85.9	47	62.6	0	2	270	0.00	29.825 
17:15	85.1	85.1	85.7	46	62.0	0	2	270	0.00	29.824 
17:20	85.5	85.5	86.9	49	64.1	0	1	270	0.00	29.824 
17:25	85.7	85.7	86.4	46	62.5	1	3	270	0.00	29.824 
17:30	85.5	85.5	86.4	47	62.9	0	1	270	0.00	29.822 
17:35	85.3	85.3	85.9	46	62.1	0	1	270	0.00	29.822 
17:40	85.3	85.3	85.9	46	62.1	0	1	270	0.00	29.822 
17:45	85.5	85.5	86.2	46	62.3	0	2	315	0.00	29.821 
17:50	85.5	85.5	86.6	48	63.5	0	2	315	0.00	29.821 
17:55	85.7	85.7	86.4	46	62.5	1	2	315	0.00	29.821 
18:00	85.5	85.5	86.4	47	62.9	0	1	315	0.00	29.815 
18:05	85.5	85.5	86.6	48	63.5	1	2	315	0.00	29.815 
18:10	85.3	85.3	86.1	47	62.8	0	1	315	0.00	29.815 
18:15	85.1	85.1	86.1	48	63.2	0	2	315	0.00	29.811 
18:20	84.9	84.9	85.8	48	63.0	0	1	315	0.00	29.811 
18:25	84.7	84.7	85.8	49	63.4	0	1	315	0.00	29.811 
18:30	84.7	84.7	85.6	48	62.8	0	1	315	0.00	29.810 
18:35	84.9	84.9	85.8	48	63.0	0	0	---	0.00	29.810 
18:40	84.9	84.9	86.1	49	63.6	0	0	---	0.00	29.810 
18:45	84.9	84.9	85.8	48	63.0	0	0	---	0.00	29.807 
18:50	84.9	84.9	86.3	50	64.2	0	0	---	0.00	29.807 
18:55	84.7	84.7	85.6	48	62.8	0	1	315	0.00	29.807 
19:00	84.9	84.9	86.6	51	64.7	0	0	---	0.00	29.804 
19:05	84.9	84.9	86.3	50	64.2	0	0	---	0.00	29.804 
19:10	84.7	84.7	85.6	48	62.8	0	1	315	0.00	29.804 
19:15	84.7	84.7	85.8	49	63.4	0	1	315	0.00	29.794 
19:20	84.7	84.7	86.3	51	64.5	0	1	315	0.00	29.794 
19:25	84.7	84.7	86.0	50	64.0	0	1	315	0.00	29.794 
19:30	84.5	84.5	85.6	49	63.2	0	1	315	0.00	29.797 
19:35	84.3	84.3	85.5	50	63.6	0	0	---	0.00	29.797 
19:40	84.1	84.1	85.5	51	64.0	0	0	---	0.00	29.797 
19:45	84.0	84.0	85.6	52	64.4	0	0	---	0.00	29.802 
19:50	83.8	83.8	85.5	53	64.8	0	0	---	0.00	29.802 
19:55	83.4	83.4	84.8	52	63.9	0	0	---	0.00	29.802 
20:00	83.2	83.2	84.7	53	64.3	0	1	315	0.00	29.805 
20:05	83.0	83.0	84.5	53	64.1	0	0	---	0.00	29.805 
20:10	82.6	82.6	84.1	54	64.2	0	0	---	0.00	29.805 
20:15	82.4	82.4	83.9	54	64.1	0	0	---	0.00	29.798 
20:20	82.2	82.2	83.8	55	64.4	0	0	---	0.00	29.798 
20:25	82.0	82.0	83.6	55	64.2	0	0	---	0.00	29.798 
20:30	81.6	81.6	83.2	56	64.4	0	0	---	0.00	29.799 
20:35	81.4	81.4	83.0	56	64.2	0	0	---	0.00	29.799 
20:40	81.1	81.1	82.8	57	64.4	0	0	---	0.00	29.799 
20:45	80.9	80.9	82.5	57	64.2	0	0	---	0.00	29.806 
20:50	80.7	80.7	82.4	58	64.5	0	0	---	0.00	29.806 
20:55	80.5	80.5	82.2	58	64.3	0	0	---	0.00	29.806 
21:00	80.1	80.1	81.7	58	64.0	0	0	---	0.00	29.808 
21:05	79.9	79.9	81.5	58	63.8	0	0	---	0.00	29.808 
21:10	79.6	79.6	81.3	59	64.0	0	0	---	0.00	29.808 
21:15	79.2	79.2	80.8	59	63.6	0	0	---	0.00	29.802 
21:20	78.8	78.8	80.4	59	63.2	0	0	---	0.00	29.802 
21:25	78.6	78.6	80.3	60	63.5	0	0	---	0.00	29.802 
21:30	78.3	78.3	80.1	62	64.2	0	0	---	0.00	29.804 
21:35	78.3	78.3	80.0	60	63.2	1	3	45	0.00	29.804 
21:40	78.6	78.6	80.2	59	63.1	1	3	45	0.00	29.804 
21:45	78.8	78.8	80.5	60	63.7	0	2	45	0.00	29.809 
21:50	78.8	78.8	80.5	60	63.7	0	0	---	0.00	29.809 
21:55	78.6	78.6	80.3	61	64.0	0	1	45	0.00	29.809 
22:00	78.5	78.5	80.2	60	63.4	1	3	45	0.00	29.816 
22:05	78.3	78.3	80.0	60	63.2	1	3	45	0.00	29.816 
22:10	78.1	78.1	79.7	59	62.6	1	3	45	0.00	29.816 
22:15	77.9	77.9	79.6	60	62.9	1	3	45	0.00	29.825 
22:20	77.6	77.6	79.4	62	63.5	1	3	45	0.00	29.825 
22:25	77.0	77.0	78.8	60	62.0	3	7	90	0.00	29.825 
22:30	76.5	76.5	78.4	61	62.0	2	5	112	0.00	29.836 
22:35	76.1	76.1	78.0	62	62.1	2	4	90	0.00	29.836 
22:40	75.8	75.8	77.8	63	62.3	1	4	90	0.00	29.836 
22:45	75.4	75.4	77.4	64	62.4	1	5	90	0.00	29.845 
22:50	75.1	75.1	77.1	65	62.5	1	4	90	0.00	29.845 
22:55	74.7	74.7	74.7	66	62.6	0	1	90	0.00	29.845 
23:00	74.4	74.4	74.4	67	62.7	1	3	90	0.00	29.846 
23:05	74.0	74.0	74.0	68	62.8	1	4	90	0.00	29.846 
23:10	73.9	73.9	73.9	69	63.1	1	5	90	0.00	29.846 
23:15	73.7	73.7	73.7	69	62.9	1	3	90	0.00	29.843 
23:20	73.5	73.5	73.5	70	63.1	0	3	90	0.00	29.843 
23:25	73.2	73.2	73.2	71	63.2	0	2	90	0.00	29.843 
23:30	73.0	73.0	73.0	71	63.0	0	2	90	0.00	29.849 
23:35	72.8	72.8	72.8	71	62.8	0	2	90	0.00	29.849 
23:40	72.8	72.8	72.8	72	63.2	0	2	90	0.00	29.849 
23:45	72.7	72.7	72.7	72	63.1	0	2	90	0.00	29.850 
23:50	72.5	72.5	72.5	72	62.9	0	2	90	0.00	29.850 
23:55	72.3	72.3	72.3	72	62.8	0	1	90	0.00	29.850 

CoCoRaHS
IN-AL-39
A2 Web Hosting
Creative Commons License
GoDaddy
search engine by freefind advanced

loaded 2018-11-16 23:14:04 • last modified 2010-11-18 10:43:29
Privacy PolicyDisclaimer
• wx.awcolley.com is powered by PmWiki v.2002016 •
• all content (unless otherwise noted) © 2018 A W Colley